Time;durP1;ratioP1;P1;durP2;ratioP2;P2;SDS_P1;SDS_P2;PMS_P1;PMS_P2;Temp;Humidity;BMP_temperature;BMP_pressure;BME280_temperature;BME280_humidity;BME280_pressure;Samples;Min_cycle;Max_cycle;Signal;HPM_P1;HPM_P2
2023/11/04 00:02:40;;;;;;;;;;;;;;;;;;4997672;28;4625;-56
2023/11/04 00:05:07;;;;;;;;;;;;;;;;;;4995650;28;5221;-55
2023/11/04 00:07:32;;;;;;;;;;;;;;;;;;4996535;28;5082;-56
2023/11/04 00:09:59;;;;;;;;;;;;;;;;;;4983098;28;5034;-56
2023/11/04 00:12:24;;;;;;;;;;;;;;;;;;5006691;28;5211;-56
2023/11/04 00:14:49;;;;;;;;;;;;;;;;;;4994088;28;1204;-56
2023/11/04 00:17:14;;;;;;;;;;;;;;;;;;4990638;28;5059;-56
2023/11/04 00:19:40;;;;;;;;;;;;;;;;;;4989367;28;5295;-56
2023/11/04 00:22:05;;;;;;;;;;;;;;;;;;4997418;28;4663;-56
2023/11/04 00:24:31;;;;;;;;;;;;;;;;;;5000511;28;4517;-56
2023/11/04 00:27:03;;;;;;;;;;;;;;;;;;5013552;28;5014;-56
2023/11/04 00:32:40;;;;;;;;;;;;;;;;;;4980051;28;4773;-56
2023/11/04 00:38:09;;;;;;;;;;;;;;;;;;4972245;28;4989;-56
2023/11/04 00:40:35;;;;;;;;;;;;;;;;;;4983706;28;4675;-56
2023/11/04 00:43:01;;;;;;;;;;;;;;;;;;4978630;28;5138;-56
2023/11/04 00:48:31;;;;;;;;;;;;;;;;;;4998882;28;5162;-56
2023/11/04 00:50:56;;;;;;;;;;;;;;;;;;5012900;28;5017;-56
2023/11/04 00:53:22;;;;;;;;;;;;;;;;;;5015016;28;1146;-56
2023/11/04 00:55:59;;;;;;;;;;;;;;;;;;4998332;28;5318;-56
2023/11/04 00:58:25;;;;;;;;;;;;;;;;;;5023966;28;5101;-55
2023/11/04 01:00:50;;;;;;;;;;;;;;;;;;5003030;28;5004;-56
2023/11/04 01:03:15;;;;;;;;;;;;;;;;;;5000091;28;4835;-56
2023/11/04 01:05:40;;;;;;;;;;;;;;;;;;5014728;28;985;-56
2023/11/04 01:08:06;;;;;;;;;;;;;;;;;;4998741;28;4994;-56
2023/11/04 01:10:31;;;;;;;;;;;;;;;;;;4999000;28;5251;-56
2023/11/04 01:12:56;;;;;;;;;;;;;;;;;;5017908;28;4889;-56
2023/11/04 01:18:49;;;;;;;;;;;;;;;;;;5004158;28;4807;-56
2023/11/04 01:21:16;;;;;;;;;;;;;;;;;;5001402;28;5065;-55
2023/11/04 01:23:42;;;;;;;;;;;;;;;;;;4993552;28;1327;-56
2023/11/04 01:26:19;;;;;;;;;;;;;;;;;;5023540;28;5011;-56
2023/11/04 01:28:44;;;;;;;;;;;;;;;;;;4996946;28;4606;-56
2023/11/04 01:31:09;;;;;;;;;;;;;;;;;;5003741;28;5157;-56
2023/11/04 01:33:35;;;;;;;;;;;;;;;;;;4996244;28;4475;-56
2023/11/04 01:36:00;;;;;;;;;;;;;;;;;;4996164;28;4638;-55
2023/11/04 01:38:25;;;;;;;;;;;;;;;;;;4995168;28;1206;-56
2023/11/04 01:40:51;;;;;;;;;;;;;;;;;;4994004;28;5048;-56
2023/11/04 01:43:26;;;;;;;;;;;;;;;;;;4995825;28;5033;-55
2023/11/04 01:46:01;;;;;;;;;;;;;;;;;;5003104;28;4564;-55
2023/11/04 01:48:32;;;;;;;;;;;;;;;;;;5003103;28;4652;-56
2023/11/04 01:51:19;;;;;;;;;;;;;;;;;;4992849;28;5096;-56
2023/11/04 01:53:46;;;;;;;;;;;;;;;;;;4994061;28;1196;-56
2023/11/04 01:56:12;;;;;;;;;;;;;;;;;;4994464;28;5091;-56
2023/11/04 01:58:38;;;;;;;;;;;;;;;;;;4993340;28;4440;-56
2023/11/04 02:01:04;;;;;;;;;;;;;;;;;;4983332;28;4773;-56
2023/11/04 02:03:30;;;;;;;;;;;;;;;;;;4978696;28;4573;-56
2023/11/04 02:05:55;;;;;;;;;;;;;;;;;;4990964;28;5240;-54
2023/11/04 02:08:20;;;;;;;;;;;;;;;;;;4981017;28;1910;-56
2023/11/04 02:10:46;;;;;;;;;;;;;;;;;;4982990;28;5026;-56
2023/11/04 02:13:12;;;;;;;;;;;;;;;;;;4987379;28;4505;-56
2023/11/04 02:15:43;;;;;;;;;;;;;;;;;;4992591;28;4669;-56
2023/11/04 02:18:09;;;;;;;;;;;;;;;;;;4975703;28;5209;-55
2023/11/04 02:20:35;;;;;;;;;;;;;;;;;;4992665;28;1150;-56
2023/11/04 02:29:05;;;;;;;;;;;;;;;;;;4974468;28;4555;-56
2023/11/04 02:31:33;;;;;;;;;;;;;;;;;;4984369;28;4486;-56
2023/11/04 02:33:59;;;;;;;;;;;;;;;;;;4965901;28;4547;-56
2023/11/04 02:36:25;;;;;;;;;;;;;;;;;;4971214;28;4451;-55
2023/11/04 02:38:50;;;;;;;;;;;;;;;;;;4972597;28;1222;-55
2023/11/04 02:41:16;;;;;;;;;;;;;;;;;;4969701;28;4920;-56
2023/11/04 02:43:41;;;;;;;;;;;;;;;;;;4979089;28;4484;-56
2023/11/04 02:46:06;;;;;;;;;;;;;;;;;;5000942;28;5136;-56
2023/11/04 02:48:31;;;;;;;;;;;;;;;;;;4979860;28;4713;-56
2023/11/04 02:50:57;;;;;;;;;;;;;;;;;;4967136;28;4975;-55
2023/11/04 02:53:22;;;;;;;;;;;;;;;;;;4972063;28;1227;-56
2023/11/04 02:58:50;;;;;;;;;;;;;;;;;;4988348;28;4692;-55
2023/11/04 03:01:16;;;;;;;;;;;;;;;;;;5003012;28;4673;-56
2023/11/04 03:06:46;;;;;;;;;;;;;;;;;;4993149;28;4996;-56
2023/11/04 03:09:23;;;;;;;;;;;;;;;;;;4997780;28;5094;-55
2023/11/04 03:11:48;;;;;;;;;;;;;;;;;;4999706;28;2868;-56
2023/11/04 03:14:14;;;;;;;;;;;;;;;;;;4990196;28;5122;-56
2023/11/04 03:16:40;;;;;;;;;;;;;;;;;;5013907;28;4816;-56
2023/11/04 03:34:23;;;;;;;;;;;;;;;;;;5007800;28;4642;-56
2023/11/04 03:36:49;;;;;;;;;;;;;;;;;;4995891;28;5092;-56
2023/11/04 03:39:14;;;;;;;;;;;;;;;;;;4995501;28;5392;-56
2023/11/04 03:41:40;;;;;;;;;;;;;;;;;;4993125;28;2650;-56
2023/11/04 03:44:12;;;;;;;;;;;;;;;;;;4992405;28;4888;-56
2023/11/04 03:46:49;;;;;;;;;;;;;;;;;;5000366;28;5264;-56
2023/11/04 03:49:17;;;;;;;;;;;;;;;;;;5009932;28;4634;-56
2023/11/04 03:51:56;;;;;;;;;;;;;;;;;;5004353;28;5094;-56
2023/11/04 03:54:22;;;;;;;;;;;;;;;;;;4993862;28;5435;-55
2023/11/04 03:56:47;;;;;;;;;;;;;;;;;;5010896;28;1042;-56
2023/11/04 03:59:12;;;;;;;;;;;;;;;;;;5014861;28;5264;-55
2023/11/04 04:04:53;;;;;;;;;;;;;;;;;;5014723;28;4622;-56
2023/11/04 04:10:33;;;;;;;;;;;;;;;;;;5008683;28;4764;-56
2023/11/04 04:12:59;;;;;;;;;;;;;;;;;;4994802;28;4530;-56
2023/11/04 04:15:24;;;;;;;;;;;;;;;;;;5013188;28;4492;-56
2023/11/04 04:17:49;;;;;;;;;;;;;;;;;;4997969;28;1199;-55
2023/11/04 04:20:21;;;;;;;;;;;;;;;;;;5015527;28;4704;-56
2023/11/04 04:22:46;;;;;;;;;;;;;;;;;;4996535;28;5059;-55
2023/11/04 04:25:11;;;;;;;;;;;;;;;;;;5011103;28;5180;-55
2023/11/04 04:27:37;;;;;;;;;;;;;;;;;;5007762;28;4546;-55
2023/11/04 04:30:03;;;;;;;;;;;;;;;;;;5010998;28;4883;-55
2023/11/04 04:32:28;;;;;;;;;;;;;;;;;;4995625;28;890;-55
2023/11/04 04:34:53;;;;;;;;;;;;;;;;;;4997138;28;4439;-55
2023/11/04 04:37:18;;;;;;;;;;;;;;;;;;4999259;28;5087;-55
2023/11/04 04:39:44;;;;;;;;;;;;;;;;;;4995752;28;4884;-55
2023/11/04 04:42:10;;;;;;;;;;;;;;;;;;4989788;28;5187;-55
2023/11/04 04:47:39;;;;;;;;;;;;;;;;;;4991194;28;4612;-57
2023/11/04 04:50:05;;;;;;;;;;;;;;;;;;4990914;28;5061;-56
2023/11/04 04:52:31;;;;;;;;;;;;;;;;;;4998642;28;4602;-56
2023/11/04 04:54:57;;;;;;;;;;;;;;;;;;4999134;28;5497;-56
2023/11/04 04:57:22;;;;;;;;;;;;;;;;;;5007920;28;5098;-56
2023/11/04 04:59:47;;;;;;;;;;;;;;;;;;4977033;28;1351;-56
2023/11/04 05:02:12;;;;;;;;;;;;;;;;;;4973331;28;5045;-56
2023/11/04 05:04:38;;;;;;;;;;;;;;;;;;5010943;28;4772;-56
2023/11/04 05:07:03;;;;;;;;;;;;;;;;;;4992999;28;4982;-56
2023/11/04 05:09:28;;;;;;;;;;;;;;;;;;4993832;28;5151;-56
2023/11/04 05:11:54;;;;;;;;;;;;;;;;;;4972696;28;1245;-56
2023/11/04 05:14:49;;;;;;;;;;;;;;;;;;5007413;28;4864;-56
2023/11/04 05:17:17;;;;;;;;;;;;;;;;;;5003764;28;5023;-56
2023/11/04 05:19:42;;;;;;;;;;;;;;;;;;4994929;28;5024;-56
2023/11/04 05:22:07;;;;;;;;;;;;;;;;;;5007609;28;4667;-56
2023/11/04 05:30:38;;;;;;;;;;;;;;;;;;4996140;28;5042;-56
2023/11/04 05:36:07;;;;;;;;;;;;;;;;;;4996209;28;5077;-56
2023/11/04 05:38:32;;;;;;;;;;;;;;;;;;4996273;28;997;-57
2023/11/04 05:40:57;;;;;;;;;;;;;;;;;;4978054;28;4513;-56
2023/11/04 05:43:25;;;;;;;;;;;;;;;;;;4995418;28;4881;-57
2023/11/04 05:48:53;;;;;;;;;;;;;;;;;;4995685;28;4980;-56
2023/11/04 05:51:24;;;;;;;;;;;;;;;;;;4976856;28;4903;-56
2023/11/04 05:53:49;;;;;;;;;;;;;;;;;;4996046;28;1073;-56
2023/11/04 05:56:18;;;;;;;;;;;;;;;;;;4995617;28;5027;-56
2023/11/04 06:05:42;;;;;;;;;;;;;;;;;;4996507;28;4744;-56
2023/11/04 06:08:08;;;;;;;;;;;;;;;;;;4977060;28;5240;-56
2023/11/04 06:10:33;;;;;;;;;;;;;;;;;;4975699;28;5083;-56
2023/11/04 06:12:58;;;;;;;;;;;;;;;;;;4995365;28;4552;-56
2023/11/04 06:15:24;;;;;;;;;;;;;;;;;;5003354;28;5075;-57
2023/11/04 06:17:49;;;;;;;;;;;;;;;;;;5004768;28;2927;-56
2023/11/04 06:20:15;;;;;;;;;;;;;;;;;;5014508;28;4539;-56
2023/11/04 06:22:40;;;;;;;;;;;;;;;;;;4996914;28;4656;-57
2023/11/04 06:31:12;;;;;;;;;;;;;;;;;;4994922;28;4702;-56
2023/11/04 06:36:41;;;;;;;;;;;;;;;;;;4995136;28;4973;-56
2023/11/04 06:39:06;;;;;;;;;;;;;;;;;;4993034;28;5014;-56
2023/11/04 06:41:32;;;;;;;;;;;;;;;;;;4994991;28;1088;-56
2023/11/04 06:43:57;;;;;;;;;;;;;;;;;;4994771;28;5009;-56
2023/11/04 06:49:25;;;;;;;;;;;;;;;;;;4994521;28;5089;-56
2023/11/04 06:55:32;;;;;;;;;;;;;;;;;;4994834;28;5155;-56
2023/11/04 06:57:58;;;;;;;;;;;;;;;;;;4994679;28;5091;-57
2023/11/04 07:00:23;;;;;;;;;;;;;;;;;;5004772;28;4899;-57
2023/11/04 07:02:49;;;;;;;;;;;;;;;;;;5029144;28;1271;-60
2023/11/04 07:08:32;;;;;;;;;;;;;;;;;;4994766;28;5044;-57
2023/11/04 07:10:58;;;;;;;;;;;;;;;;;;4994087;28;4963;-59
2023/11/04 07:13:32;;;;;;;;;;;;;;;;;;4994332;28;4546;-60
2023/11/04 07:15:57;;;;;;;;;;;;;;;;;;4994331;28;4923;-60
2023/11/04 07:27:32;;;;;;;;;;;;;;;;;;4993080;28;5216;-59
2023/11/04 07:29:58;;;;;;;;;;;;;;;;;;4995746;28;5244;-59
2023/11/04 07:32:23;;;;;;;;;;;;;;;;;;5012495;28;997;-59
2023/11/04 07:34:48;;;;;;;;;;;;;;;;;;5014078;28;4561;-60
2023/11/04 07:37:14;;;;;;;;;;;;;;;;;;5010727;28;4962;-58
2023/11/04 07:39:40;;;;;;;;;;;;;;;;;;5013888;28;4963;-59
2023/11/04 07:42:05;;;;;;;;;;;;;;;;;;4992072;28;5091;-59
2023/11/04 07:44:31;;;;;;;;;;;;;;;;;;4994524;28;997;-60
2023/11/04 07:46:59;;;;;;;;;;;;;;;;;;5013440;28;4987;-59
2023/11/04 07:49:25;;;;;;;;;;;;;;;;;;5014768;28;5150;-59
2023/11/04 07:51:50;;;;;;;;;;;;;;;;;;5011667;28;4972;-60
2023/11/04 07:54:25;;;;;;;;;;;;;;;;;;4995082;28;5096;-60
2023/11/04 07:56:51;;;;;;;;;;;;;;;;;;4997878;28;1048;-60
2023/11/04 07:59:16;;;;;;;;;;;;;;;;;;4994909;28;4952;-60
2023/11/04 08:01:55;;;;;;;;;;;;;;;;;;5011261;28;5194;-59
2023/11/04 08:04:20;;;;;;;;;;;;;;;;;;5008345;28;4999;-60
2023/11/04 08:06:45;;;;;;;;;;;;;;;;;;5012490;28;5777;-60
2023/11/04 08:09:10;;;;;;;;;;;;;;;;;;4998576;28;5514;-59
2023/11/04 08:11:36;;;;;;;;;;;;;;;;;;5007194;28;1681;-59
2023/11/04 08:14:01;;;;;;;;;;;;;;;;;;4997399;28;4980;-59
2023/11/04 08:31:39;;;;;;;;;;;;;;;;;;4997537;28;5122;-59
2023/11/04 08:34:04;;;;;;;;;;;;;;;;;;5010315;28;4513;-60
2023/11/04 08:36:29;;;;;;;;;;;;;;;;;;5013287;28;4912;-59
2023/11/04 08:38:55;;;;;;;;;;;;;;;;;;5012387;28;5568;-58
2023/11/04 08:41:26;;;;;;;;;;;;;;;;;;5007715;28;949;-60
2023/11/04 08:43:52;;;;;;;;;;;;;;;;;;4997752;28;5062;-59
2023/11/04 08:46:18;;;;;;;;;;;;;;;;;;4996754;28;5063;-60
2023/11/04 08:51:52;;;;;;;;;;;;;;;;;;4992955;28;5212;-59
2023/11/04 08:54:20;;;;;;;;;;;;;;;;;;4994489;28;4674;-59
2023/11/04 09:00:06;;;;;;;;;;;;;;;;;;4974696;28;4555;-59
2023/11/04 09:02:39;;;;;;;;;;;;;;;;;;4974075;28;5220;-57
2023/11/04 09:08:43;;;;;;;;;;;;;;;;;;4978507;28;5144;-59
2023/11/04 09:11:09;;;;;;;;;;;;;;;;;;4956578;28;4547;-59
2023/11/04 09:13:34;;;;;;;;;;;;;;;;;;4972345;28;5520;-59
2023/11/04 09:15:59;;;;;;;;;;;;;;;;;;4983610;28;4775;-59
2023/11/04 09:21:52;;;;;;;;;;;;;;;;;;4957667;28;5423;-58
2023/11/04 09:24:19;;;;;;;;;;;;;;;;;;4957206;28;5077;-60
2023/11/04 09:26:44;;;;;;;;;;;;;;;;;;4956197;28;1539;-60
2023/11/04 09:29:09;;;;;;;;;;;;;;;;;;4991655;28;5084;-59
2023/11/04 09:31:36;;;;;;;;;;;;;;;;;;4973457;28;5072;-59
2023/11/04 09:34:02;;;;;;;;;;;;;;;;;;4976512;28;4570;-59
2023/11/04 09:36:28;;;;;;;;;;;;;;;;;;4975190;28;5014;-60
2023/11/04 09:38:54;;;;;;;;;;;;;;;;;;4973826;28;1318;-59
2023/11/04 09:41:20;;;;;;;;;;;;;;;;;;4983843;28;4990;-59
2023/11/04 09:43:45;;;;;;;;;;;;;;;;;;4969553;28;5096;-60
2023/11/04 09:46:10;;;;;;;;;;;;;;;;;;4963443;28;5136;-60
2023/11/04 09:48:37;;;;;;;;;;;;;;;;;;4938043;28;5110;-59
2023/11/04 09:51:02;;;;;;;;;;;;;;;;;;4955837;28;4692;-59
2023/11/04 09:53:30;;;;;;;;;;;;;;;;;;4970950;28;1098;-60
2023/11/04 10:02:23;;;;;;;;;;;;;;;;;;4971819;28;5074;-59
2023/11/04 10:10:47;;;;;;;;;;;;;;;;;;4956617;29;5060;-59
2023/11/04 10:13:12;;;;;;;;;;;;;;;;;;4953490;28;5030;-58
2023/11/04 10:15:38;;;;;;;;;;;;;;;;;;4953938;28;5023;-58
2023/11/04 10:18:03;;;;;;;;;;;;;;;;;;4954619;28;5078;-58
2023/11/04 10:26:27;;;;;;;;;;;;;;;;;;4973674;28;4751;-58
2023/11/04 10:28:53;;;;;;;;;;;;;;;;;;4972350;28;4925;-59
2023/11/04 10:31:18;;;;;;;;;;;;;;;;;;4956370;28;4943;-59
2023/11/04 10:34:17;;;;;;;;;;;;;;;;;;4988806;28;4652;-58
2023/11/04 10:36:44;;;;;;;;;;;;;;;;;;4978161;28;4956;-58
2023/11/04 10:45:16;;;;;;;;;;;;;;;;;;4972867;28;5120;-59
2023/11/04 10:47:49;;;;;;;;;;;;;;;;;;5007821;28;1914;-59
2023/11/04 10:50:15;;;;;;;;;;;;;;;;;;4955157;28;5071;-60
2023/11/04 10:52:45;;;;;;;;;;;;;;;;;;4972314;28;4461;-59
2023/11/04 10:55:13;;;;;;;;;;;;;;;;;;5002550;28;5147;-58
2023/11/04 10:57:39;;;;;;;;;;;;;;;;;;4974856;28;4651;-60
2023/11/04 11:00:14;;;;;;;;;;;;;;;;;;4973462;28;5135;-60
2023/11/04 11:02:40;;;;;;;;;;;;;;;;;;4984515;28;1263;-59
2023/11/04 11:05:06;;;;;;;;;;;;;;;;;;4956529;28;4640;-60
2023/11/04 11:07:31;;;;;;;;;;;;;;;;;;4970745;28;5058;-58
2023/11/04 11:09:57;;;;;;;;;;;;;;;;;;4971807;28;4965;-60
2023/11/04 11:12:22;;;;;;;;;;;;;;;;;;4972421;28;5125;-59
2023/11/04 11:14:48;;;;;;;;;;;;;;;;;;4967060;28;1169;-58
2023/11/04 11:17:13;;;;;;;;;;;;;;;;;;4976441;28;4943;-59
2023/11/04 11:25:44;;;;;;;;;;;;;;;;;;4973381;28;4537;-58
2023/11/04 11:28:16;;;;;;;;;;;;;;;;;;4977202;28;5019;-59
2023/11/04 11:30:44;;;;;;;;;;;;;;;;;;4977058;28;5098;-60
2023/11/04 11:33:11;;;;;;;;;;;;;;;;;;4978250;28;5001;-59
2023/11/04 11:35:50;;;;;;;;;;;;;;;;;;5006653;28;4492;-59
2023/11/04 11:38:16;;;;;;;;;;;;;;;;;;5015889;28;4944;-59
2023/11/04 11:44:19;;;;;;;;;;;;;;;;;;4998213;28;4889;-59
2023/11/04 11:46:44;;;;;;;;;;;;;;;;;;5021351;28;4572;-59
2023/11/04 11:49:10;;;;;;;;;;;;;;;;;;5013839;28;4584;-59
2023/11/04 11:51:38;;;;;;;;;;;;;;;;;;4979070;28;5144;-59
2023/11/04 11:57:22;;;;;;;;;;;;;;;;;;5002428;28;4486;-60
2023/11/04 12:02:51;;;;;;;;;;;;;;;;;;4978796;28;5019;-59
2023/11/04 12:05:16;;;;;;;;;;;;;;;;;;4976687;28;1392;-60
2023/11/04 12:07:42;;;;;;;;;;;;;;;;;;4998003;28;4472;-60
2023/11/04 12:10:08;;;;;;;;;;;;;;;;;;4977421;28;5036;-59
2023/11/04 12:15:36;;;;;;;;;;;;;;;;;;4966527;28;5027;-60
2023/11/04 12:18:02;;;;;;;;;;;;;;;;;;5004959;28;5089;-58
2023/11/04 12:20:29;;;;;;;;;;;;;;;;;;4978335;28;1199;-60
2023/11/04 12:22:55;;;;;;;;;;;;;;;;;;4960360;28;4950;-60
2023/11/04 12:28:27;;;;;;;;;;;;;;;;;;4973695;28;4628;-60
2023/11/04 12:34:01;;;;;;;;;;;;;;;;;;4973338;28;5281;-60
2023/11/04 12:39:31;;;;;;;;;;;;;;;;;;4969515;28;5082;-59
2023/11/04 12:42:28;;;;;;;;;;;;;;;;;;4975003;28;5090;-59
2023/11/04 12:45:27;;;;;;;;;;;;;;;;;;4977817;28;1087;-59
2023/11/04 12:57:05;;;;;;;;;;;;;;;;;;4953602;28;4580;-59
2023/11/04 12:59:31;;;;;;;;;;;;;;;;;;4950502;28;3028;-58
2023/11/04 13:01:57;;;;;;;;;;;;;;;;;;4948399;28;5145;-59
2023/11/04 13:04:22;;;;;;;;;;;;;;;;;;4958332;28;4871;-58
2023/11/04 13:06:48;;;;;;;;;;;;;;;;;;4967493;28;5289;-57
2023/11/04 13:09:22;;;;;;;;;;;;;;;;;;4971052;28;5156;-59
2023/11/04 13:11:47;;;;;;;;;;;;;;;;;;4968740;28;3380;-59
2023/11/04 13:14:12;;;;;;;;;;;;;;;;;;4973559;28;4535;-58
2023/11/04 13:16:38;;;;;;;;;;;;;;;;;;4973360;28;5026;-59
2023/11/04 13:19:03;;;;;;;;;;;;;;;;;;4974441;28;5016;-59
2023/11/04 13:21:43;;;;;;;;;;;;;;;;;;4978777;28;4993;-59
2023/11/04 13:24:08;;;;;;;;;;;;;;;;;;4972682;28;5129;-59
2023/11/04 13:30:06;;;;;;;;;;;;;;;;;;4975019;28;4593;-58
2023/11/04 13:35:34;;;;;;;;;;;;;;;;;;4981780;28;5618;-58
2023/11/04 13:38:05;;;;;;;;;;;;;;;;;;5003510;28;5039;-58
2023/11/04 13:40:30;;;;;;;;;;;;;;;;;;4987996;28;5081;-58
2023/11/04 13:42:56;;;;;;;;;;;;;;;;;;4982890;28;4519;-58
2023/11/04 13:45:22;;;;;;;;;;;;;;;;;;4976488;28;4537;-57
2023/11/04 13:47:47;;;;;;;;;;;;;;;;;;4957365;28;2730;-59
2023/11/04 13:50:12;;;;;;;;;;;;;;;;;;4969528;28;4989;-58
2023/11/04 13:52:38;;;;;;;;;;;;;;;;;;4972359;28;4477;-58
2023/11/04 13:58:19;;;;;;;;;;;;;;;;;;4970698;28;5131;-58
2023/11/04 14:03:54;;;;;;;;;;;;;;;;;;4979432;28;5478;-59
2023/11/04 14:06:19;;;;;;;;;;;;;;;;;;5014839;28;5016;-60
2023/11/04 14:11:47;;;;;;;;;;;;;;;;;;5000317;28;4521;-60
2023/11/04 14:14:13;;;;;;;;;;;;;;;;;;5010439;28;5080;-59
2023/11/04 14:16:38;;;;;;;;;;;;;;;;;;5013566;28;5089;-59
2023/11/04 14:22:13;;;;;;;;;;;;;;;;;;4998819;28;4655;-59
2023/11/04 14:25:05;;;;;;;;;;;;;;;;;;4991740;28;4896;-59
2023/11/04 14:31:08;;;;;;;;;;;;;;;;;;4989442;28;4628;-59
2023/11/04 14:45:46;;;;;;;;;;;;;;;;;;4990766;28;4529;-58
2023/11/04 14:51:41;;;;;;;;;;;;;;;;;;4989711;28;4545;-59
2023/11/04 14:54:06;;;;;;;;;;;;;;;;;;4988017;28;5110;-59
2023/11/04 14:56:34;;;;;;;;;;;;;;;;;;4991363;28;1045;-57
2023/11/04 14:58:59;;;;;;;;;;;;;;;;;;4989975;28;4726;-59
2023/11/04 15:04:27;;;;;;;;;;;;;;;;;;4987502;28;4712;-60
2023/11/04 15:06:53;;;;;;;;;;;;;;;;;;4991227;28;5400;-61
2023/11/04 15:09:18;;;;;;;;;;;;;;;;;;4993013;28;4973;-58
2023/11/04 15:11:44;;;;;;;;;;;;;;;;;;4993397;28;2943;-59
2023/11/04 15:14:09;;;;;;;;;;;;;;;;;;4993663;28;4956;-58
2023/11/04 15:16:35;;;;;;;;;;;;;;;;;;4994490;28;5040;-59
2023/11/04 15:19:04;;;;;;;;;;;;;;;;;;5031661;28;4821;-59
2023/11/04 15:21:29;;;;;;;;;;;;;;;;;;5003683;28;5151;-59
2023/11/04 15:23:55;;;;;;;;;;;;;;;;;;4996985;28;5193;-55
2023/11/04 15:26:23;;;;;;;;;;;;;;;;;;5002131;28;3070;-59
2023/11/04 15:28:48;;;;;;;;;;;;;;;;;;5006566;28;4535;-59
2023/11/04 15:31:14;;;;;;;;;;;;;;;;;;4996768;28;4660;-58
2023/11/04 15:33:39;;;;;;;;;;;;;;;;;;4991886;28;4642;-59
2023/11/04 15:36:06;;;;;;;;;;;;;;;;;;4996831;28;4980;-58
2023/11/04 15:38:31;;;;;;;;;;;;;;;;;;5004719;28;1336;-59
2023/11/04 15:40:57;;;;;;;;;;;;;;;;;;5028171;28;5029;-58
2023/11/04 15:43:23;;;;;;;;;;;;;;;;;;5017248;28;5037;-58
2023/11/04 15:45:48;;;;;;;;;;;;;;;;;;5024720;28;5071;-58
2023/11/04 15:48:13;;;;;;;;;;;;;;;;;;5010388;28;4567;-58
2023/11/04 15:50:39;;;;;;;;;;;;;;;;;;5011113;28;1209;-58
2023/11/04 15:53:05;;;;;;;;;;;;;;;;;;5013674;28;5000;-59
2023/11/04 15:55:30;;;;;;;;;;;;;;;;;;5003597;28;5009;-59
2023/11/04 16:00:58;;;;;;;;;;;;;;;;;;4994260;28;5163;-59
2023/11/04 16:03:34;;;;;;;;;;;;;;;;;;4998081;28;5149;-58
2023/11/04 16:06:00;;;;;;;;;;;;;;;;;;5012163;28;4711;-58
2023/11/04 16:08:40;;;;;;;;;;;;;;;;;;5014988;28;1977;-58
2023/11/04 16:11:05;;;;;;;;;;;;;;;;;;5014973;28;4835;-57
2023/11/04 16:13:30;;;;;;;;;;;;;;;;;;5016998;28;4629;-58
2023/11/04 16:19:19;;;;;;;;;;;;;;;;;;4994483;28;4552;-61
2023/11/04 16:27:59;;;;;;;;;;;;;;;;;;5014835;28;5044;-60
2023/11/04 16:30:25;;;;;;;;;;;;;;;;;;4997135;28;5098;-59
2023/11/04 16:32:51;;;;;;;;;;;;;;;;;;4995559;28;3158;-60
2023/11/04 16:35:16;;;;;;;;;;;;;;;;;;4996701;28;4637;-59
2023/11/04 16:40:46;;;;;;;;;;;;;;;;;;5017026;28;5046;-60
2023/11/04 16:43:12;;;;;;;;;;;;;;;;;;5016575;28;4849;-60
2023/11/04 16:45:37;;;;;;;;;;;;;;;;;;5016357;28;4942;-60
2023/11/04 16:48:05;;;;;;;;;;;;;;;;;;5016002;28;5089;-60
2023/11/04 16:59:50;;;;;;;;;;;;;;;;;;4997510;28;4597;-64
2023/11/04 17:02:15;;;;;;;;;;;;;;;;;;4996448;28;4944;-60
2023/11/04 17:04:41;;;;;;;;;;;;;;;;;;4994933;28;4644;-61
2023/11/04 17:07:09;;;;;;;;;;;;;;;;;;4996279;28;5090;-60
2023/11/04 17:12:37;;;;;;;;;;;;;;;;;;4996321;28;5108;-60
2023/11/04 17:18:05;;;;;;;;;;;;;;;;;;4996218;28;4612;-60
2023/11/04 17:20:57;;;;;;;;;;;;;;;;;;4996538;28;1044;-61
2023/11/04 17:23:22;;;;;;;;;;;;;;;;;;5005249;28;5165;-60
2023/11/04 17:25:47;;;;;;;;;;;;;;;;;;5014213;28;5150;-61
2023/11/04 17:28:12;;;;;;;;;;;;;;;;;;5015497;28;4774;-61
2023/11/04 17:33:40;;;;;;;;;;;;;;;;;;5015850;28;4502;-61
2023/11/04 17:36:08;;;;;;;;;;;;;;;;;;5015429;28;4544;-60
2023/11/04 17:38:33;;;;;;;;;;;;;;;;;;5015868;28;1202;-60
2023/11/04 17:40:59;;;;;;;;;;;;;;;;;;5014181;28;4635;-60
2023/11/04 17:43:35;;;;;;;;;;;;;;;;;;5013686;28;4984;-60
2023/11/04 17:46:00;;;;;;;;;;;;;;;;;;4988803;28;5099;-58
2023/11/04 17:48:26;;;;;;;;;;;;;;;;;;4993093;28;4623;-58
2023/11/04 17:50:51;;;;;;;;;;;;;;;;;;4999562;28;2695;-58
2023/11/04 17:53:17;;;;;;;;;;;;;;;;;;5024764;28;4688;-59
2023/11/04 17:55:42;;;;;;;;;;;;;;;;;;5009699;28;5107;-57
2023/11/04 17:58:08;;;;;;;;;;;;;;;;;;5016846;28;5076;-58
2023/11/04 18:00:34;;;;;;;;;;;;;;;;;;5001201;28;4486;-57
2023/11/04 18:02:59;;;;;;;;;;;;;;;;;;5024640;28;5205;-58
2023/11/04 18:05:25;;;;;;;;;;;;;;;;;;4993646;28;1247;-58
2023/11/04 18:13:56;;;;;;;;;;;;;;;;;;4954686;28;5264;-60
2023/11/04 18:16:23;;;;;;;;;;;;;;;;;;4954172;28;4651;-59
2023/11/04 18:18:48;;;;;;;;;;;;;;;;;;4954881;28;5475;-59
2023/11/04 18:21:13;;;;;;;;;;;;;;;;;;4954320;28;5077;-59
2023/11/04 18:24:01;;;;;;;;;;;;;;;;;;4955725;28;996;-60
2023/11/04 18:26:26;;;;;;;;;;;;;;;;;;4970075;28;4637;-60
2023/11/04 18:28:51;;;;;;;;;;;;;;;;;;4976952;28;5013;-60
2023/11/04 18:31:17;;;;;;;;;;;;;;;;;;4959305;28;5031;-60
2023/11/04 18:36:55;;;;;;;;;;;;;;;;;;4953634;28;5138;-60
2023/11/04 18:39:20;;;;;;;;;;;;;;;;;;4969188;28;4960;-59
2023/11/04 18:41:45;;;;;;;;;;;;;;;;;;4975593;28;1081;-69
2023/11/04 18:44:12;;;;;;;;;;;;;;;;;;4975022;28;5027;-67
2023/11/04 18:49:40;;;;;;;;;;;;;;;;;;4975138;28;4579;-67
2023/11/04 18:55:08;;;;;;;;;;;;;;;;;;4975464;28;4671;-65
2023/11/04 18:57:34;;;;;;;;;;;;;;;;;;4974922;28;4994;-64
2023/11/04 18:59:59;;;;;;;;;;;;;;;;;;4957477;28;4690;-66
2023/11/04 19:02:25;;;;;;;;;;;;;;;;;;4975564;28;1073;-67
2023/11/04 19:04:58;;;;;;;;;;;;;;;;;;4979441;28;5027;-65
2023/11/04 19:07:24;;;;;;;;;;;;;;;;;;4994372;28;4948;-66
2023/11/04 19:09:49;;;;;;;;;;;;;;;;;;4994333;28;4505;-66
2023/11/04 19:15:17;;;;;;;;;;;;;;;;;;4994664;28;4963;-66
2023/11/04 19:17:42;;;;;;;;;;;;;;;;;;4994801;28;1131;-67
2023/11/04 19:20:07;;;;;;;;;;;;;;;;;;4997504;28;4466;-67
2023/11/04 19:22:33;;;;;;;;;;;;;;;;;;5005538;28;4568;-66
2023/11/04 19:28:01;;;;;;;;;;;;;;;;;;5014556;28;4538;-65
2023/11/04 19:33:31;;;;;;;;;;;;;;;;;;5014319;28;4917;-65
2023/11/04 19:35:57;;;;;;;;;;;;;;;;;;5014517;28;4921;-66
2023/11/04 19:38:22;;;;;;;;;;;;;;;;;;5015238;28;1095;-66
2023/11/04 19:40:47;;;;;;;;;;;;;;;;;;4996637;28;4957;-63
2023/11/04 19:46:20;;;;;;;;;;;;;;;;;;5016816;28;4689;-66
2023/11/04 19:52:07;;;;;;;;;;;;;;;;;;5018603;28;4987;-68
2023/11/04 19:57:35;;;;;;;;;;;;;;;;;;5019013;28;4954;-75
2023/11/04 20:03:06;;;;;;;;;;;;;;;;;;5019082;28;4985;-72
2023/11/04 20:05:31;;;;;;;;;;;;;;;;;;5017501;28;1305;-72
2023/11/04 20:07:57;;;;;;;;;;;;;;;;;;5019713;28;5092;-73
2023/11/04 20:10:23;;;;;;;;;;;;;;;;;;5019022;28;5250;-72
2023/11/04 20:15:51;;;;;;;;;;;;;;;;;;5017402;28;5031;-62
2023/11/04 20:21:18;;;;;;;;;;;;;;;;;;5017316;28;4865;-61
2023/11/04 20:23:46;;;;;;;;;;;;;;;;;;5016979;28;1196;-60
2023/11/04 20:26:11;;;;;;;;;;;;;;;;;;4998960;28;5059;-61
2023/11/04 20:28:37;;;;;;;;;;;;;;;;;;5016692;28;4939;-60
2023/11/04 20:34:06;;;;;;;;;;;;;;;;;;5016698;28;5967;-62
2023/11/04 20:36:31;;;;;;;;;;;;;;;;;;4999030;28;5039;-60
2023/11/04 20:38:57;;;;;;;;;;;;;;;;;;5016868;28;4687;-60
2023/11/04 20:41:23;;;;;;;;;;;;;;;;;;5016871;28;1392;-61
2023/11/04 20:46:58;;;;;;;;;;;;;;;;;;5017192;28;4599;-60
2023/11/04 20:52:27;;;;;;;;;;;;;;;;;;5016850;28;4963;-61
2023/11/04 20:57:55;;;;;;;;;;;;;;;;;;5016159;28;4478;-62
2023/11/04 21:00:20;;;;;;;;;;;;;;;;;;4998271;28;5021;-62
2023/11/04 21:02:45;;;;;;;;;;;;;;;;;;5016868;28;1334;-62
2023/11/04 21:05:11;;;;;;;;;;;;;;;;;;4993699;28;5313;-62
2023/11/04 21:16:45;;;;;;;;;;;;;;;;;;4996873;28;5099;-62
2023/11/04 21:22:13;;;;;;;;;;;;;;;;;;4996397;28;4438;-61
2023/11/04 21:24:39;;;;;;;;;;;;;;;;;;4995880;28;5099;-62
2023/11/04 21:27:04;;;;;;;;;;;;;;;;;;4993861;28;5181;-62
2023/11/04 21:29:29;;;;;;;;;;;;;;;;;;4995161;28;2647;-60
2023/11/04 21:34:57;;;;;;;;;;;;;;;;;;4996640;28;4907;-61
2023/11/04 21:37:23;;;;;;;;;;;;;;;;;;4994008;28;4536;-59
2023/11/04 21:39:48;;;;;;;;;;;;;;;;;;4996120;28;5139;-59
2023/11/04 21:42:13;;;;;;;;;;;;;;;;;;4978675;28;4847;-60
2023/11/04 21:47:41;;;;;;;;;;;;;;;;;;4996726;28;4737;-66
2023/11/04 21:50:07;;;;;;;;;;;;;;;;;;4995497;28;4521;-67
2023/11/04 21:52:33;;;;;;;;;;;;;;;;;;4994314;28;4933;-64
2023/11/04 21:54:58;;;;;;;;;;;;;;;;;;5012342;28;4473;-64
2023/11/04 21:57:23;;;;;;;;;;;;;;;;;;5014342;28;5252;-65
2023/11/04 21:59:48;;;;;;;;;;;;;;;;;;4971763;28;1219;-65
2023/11/04 22:02:14;;;;;;;;;;;;;;;;;;4986392;28;5009;-66
2023/11/04 22:04:39;;;;;;;;;;;;;;;;;;4970494;28;4505;-65
2023/11/04 22:07:04;;;;;;;;;;;;;;;;;;4990762;28;4568;-63
2023/11/04 22:09:30;;;;;;;;;;;;;;;;;;4994638;28;4987;-63
2023/11/04 22:11:55;;;;;;;;;;;;;;;;;;4995504;28;4950;-65
2023/11/04 22:14:20;;;;;;;;;;;;;;;;;;4995953;28;1116;-65
2023/11/04 22:19:48;;;;;;;;;;;;;;;;;;4995401;28;5060;-65
2023/11/04 22:22:13;;;;;;;;;;;;;;;;;;4995170;28;4948;-65
2023/11/04 22:24:39;;;;;;;;;;;;;;;;;;4995156;28;4999;-65
2023/11/04 22:27:04;;;;;;;;;;;;;;;;;;4994971;28;4620;-65
2023/11/04 22:29:30;;;;;;;;;;;;;;;;;;4995900;28;1914;-65
2023/11/04 22:31:55;;;;;;;;;;;;;;;;;;4994929;28;4573;-65
2023/11/04 22:34:22;;;;;;;;;;;;;;;;;;4994869;28;4477;-65
2023/11/04 22:36:48;;;;;;;;;;;;;;;;;;4990722;28;4665;-65
2023/11/04 22:42:15;;;;;;;;;;;;;;;;;;4974228;28;4532;-65
2023/11/04 22:50:46;;;;;;;;;;;;;;;;;;4975983;28;4527;-65